Detall de PIREP

Printer-friendly versionPDF version

[2013/04/13 08:59:00]
Flight IATA:CT3232
Pilot Number:042
Company ICAO:CAT
Aircraft Type:B738/F
PAX:83
Departing Airport: LEPA
Destination Airport: LEMD
Alternate Airport:LEMG
Online: VATSIM
Route:EPAMA UN733 PRADO
Flight Level:F300
No Slew and time accel
No pause
Crash detect
Detect pilot in Cockpit between each 30 and 45 minutes
08:59 Zero fuel Weight: 115601 Lbs, Fuel Weight: 46049 Lbs
08:59 VATSIM:LEPA 130830Z 05003KT 010V100 CAVOK 17/11 Q1022 NOSIG
08:59 VATSIM:LEMD 130830Z VRB02KT CAVOK 10/06 Q1023 NOSIG
08:59 VOICE CATALONIAN
09:05 Parking Brakes off
09:24 Take-off
09:24 Take off Weight: 160498 Lbs
09:24 Wind: 232º @ 004 Knots Heading: 238º
09:24 POS N39º 33´ 00´´ E002º 43´ 00´´
09:24 Gear Up: 173 Knots
09:24 Flaps:5 at 173 Knots
09:24 Flaps:4 at 177 Knots
09:25 Flaps:3 at 163 Knots
09:26 Flaps:2 at 181 Knots
09:27 Flaps:1 at 226 Knots
09:29 Flaps:0 at 250 Knots
09:39 Wind:301º@049 Knots Heading: 269º Ground Speed: 422 Knots Altitude 28802 ft
09:39 TOC
09:39 Fuel Weight: 41199 Lb
09:54 Wind:302º@048 Knots Heading: 299º Ground Speed: 411 Knots Altitude 31266 ft
09:57 TOD
09:57 Fuel Weight: 39298 Lb
10:09 Wind:299º@008 Knots Heading: 269º Ground Speed: 274 Knots Altitude 9931 ft
10:09 Flaps:1 at 251 Knots
10:12 Flaps:2 at 219 Knots
10:13 Flaps:3 at 213 Knots
10:13 Flaps:4 at 196 Knots
10:14 Flaps:5 at 171 Knots
10:15 Gear Down: 163 Knots
10:15 Flaps:6 at 160 Knots
10:15 Flaps:7 at 156 Knots
10:15 Flaps:8 at 150 Knots
10:18 TouchDown:Rate -110 ft/min Speed: 133 Knots
10:18 VATSIM:LEMD 131000Z 22002KT CAVOK 14/07 Q1023 NOSIG
10:18 Land
10:18 Wind:244º@010 Knots
10:18 Heading: 322º
10:18 Flight Duration: 00:54
10:18 Landing Weight: 153636 Lbs
10:18 POS N40º 28´ 24´´ W003º 33´ 53´´
10:24 Parking brakeson
10:24 Block to Block Duration: 01:19
10:24 Final Fuel: 37449 Lbls
10:24 Spent Fuel: 8600 Lbls
10:24 Flight Length: 308 NM
10:24 TOD Land Length: 99 NM

Exportar CSV

Powered by Drupal - Modified by Danger4k